Time;durP1;ratioP1;P1;durP2;ratioP2;P2;SDS_P1;SDS_P2;PMS_P1;PMS_P2;Temp;Humidity;BMP_temperature;BMP_pressure;BME280_temperature;BME280_humidity;BME280_pressure;Samples;Min_cycle;Max_cycle;Signal;HPM_P1;HPM_P2
2020/12/31 00:00:18;;;;;;;8.20;5.70;;;4.60;99.90;;;;;;5021600;28;20463;-88
2020/12/31 00:02:46;;;;;;;7.33;5.50;;;4.70;99.90;;;;;;5018913;28;20461;-88
2020/12/31 00:05:12;;;;;;;6.60;5.43;;;4.70;99.90;;;;;;5021582;28;20508;-89
2020/12/31 00:07:39;;;;;;;7.23;5.20;;;4.70;99.90;;;;;;5037766;28;20496;-87
2020/12/31 00:10:07;;;;;;;11.00;6.17;;;4.70;99.90;;;;;;5024491;28;20546;-87
2020/12/31 00:12:33;;;;;;;8.07;6.10;;;4.70;99.90;;;;;;5023812;28;20451;-88
2020/12/31 00:15:00;;;;;;;8.10;5.20;;;4.60;99.90;;;;;;5024409;28;20504;-88
2020/12/31 00:17:26;;;;;;;7.40;5.70;;;4.60;99.90;;;;;;5018685;28;20454;-89
2020/12/31 00:19:54;;;;;;;7.37;5.43;;;4.60;99.90;;;;;;5025849;28;20558;-88
2020/12/31 00:22:20;;;;;;;8.83;6.20;;;4.60;99.90;;;;;;5038622;28;20467;-87
2020/12/31 00:24:47;;;;;;;7.80;5.20;;;4.50;99.90;;;;;;5037063;28;20446;-88
2020/12/31 00:27:13;;;;;;;8.93;5.60;;;4.50;99.90;;;;;;5024951;28;20785;-86
2020/12/31 00:29:40;;;;;;;6.97;5.20;;;4.50;99.90;;;;;;5018472;28;20490;-87
2020/12/31 00:32:09;;;;;;;6.37;5.07;;;4.60;99.90;;;;;;5028046;28;20450;-87
2020/12/31 00:34:35;;;;;;;8.50;5.63;;;4.60;99.90;;;;;;5037156;28;20473;-87
2020/12/31 00:37:03;;;;;;;7.53;5.97;;;4.50;99.90;;;;;;5037386;28;20537;-88
2020/12/31 00:39:30;;;;;;;7.63;5.13;;;4.50;99.90;;;;;;5030172;28;20533;-87
2020/12/31 00:41:56;;;;;;;8.53;5.53;;;4.50;99.90;;;;;;5019726;28;20487;-87
2020/12/31 00:44:23;;;;;;;8.77;6.73;;;4.50;99.90;;;;;;5028430;28;20533;-87
2020/12/31 00:46:49;;;;;;;7.50;5.90;;;4.50;99.90;;;;;;5036108;28;20489;-87
2020/12/31 00:49:15;;;;;;;8.27;6.07;;;4.50;99.90;;;;;;5036748;28;20495;-87
2020/12/31 00:51:42;;;;;;;11.60;6.07;;;4.30;99.90;;;;;;5036696;28;20446;-86
2020/12/31 00:54:09;;;;;;;8.13;5.97;;;4.30;99.90;;;;;;5037329;28;20891;-90
2020/12/31 00:56:36;;;;;;;62.60;8.23;;;4.30;99.90;;;;;;5040032;28;20464;-90
2020/12/31 00:59:03;;;;;;;8.90;6.73;;;4.20;99.90;;;;;;5041102;28;20447;-93
2020/12/31 01:01:29;;;;;;;11.07;7.50;;;4.20;99.90;;;;;;5037474;28;20485;-93
2020/12/31 01:03:56;;;;;;;11.13;6.37;;;4.10;99.90;;;;;;5035459;28;20454;-92
2020/12/31 01:06:22;;;;;;;8.47;7.03;;;4.00;99.90;;;;;;5035918;28;20483;-92
2020/12/31 01:08:49;;;;;;;9.70;7.80;;;3.90;99.90;;;;;;5036620;28;20549;-92
2020/12/31 01:11:18;;;;;;;10.93;7.93;;;3.90;99.90;;;;;;5020701;28;20473;-91
2020/12/31 01:13:45;;;;;;;11.23;7.47;;;3.80;99.90;;;;;;5037076;28;20505;-92
2020/12/31 01:16:11;;;;;;;11.93;7.90;;;3.80;99.90;;;;;;5041312;28;20461;-92
2020/12/31 01:18:38;;;;;;;1999.90;999.90;;;3.80;99.90;;;;;;5037247;28;20468;-91
2020/12/31 01:21:09;;;;;;;12.70;8.33;;;4.00;99.90;;;;;;5036996;28;20457;-91
2020/12/31 01:23:38;;;;;;;11.40;7.87;;;4.00;99.90;;;;;;5031437;28;20554;-90
2020/12/31 01:26:04;;;;;;;10.40;7.80;;;4.40;99.90;;;;;;5033542;28;20549;-91
2020/12/31 01:28:32;;;;;;;9.43;7.30;;;3.80;99.90;;;;;;5025879;28;20482;-90
2020/12/31 01:30:58;;;;;;;9.70;7.30;;;3.80;99.90;;;;;;5018538;28;20556;-91
2020/12/31 01:33:25;;;;;;;12.37;7.77;;;3.80;99.90;;;;;;5036654;28;20852;-92
2020/12/31 01:35:51;;;;;;;11.43;8.23;;;3.80;99.90;;;;;;5035959;28;20458;-90
2020/12/31 01:38:18;;;;;;;12.80;8.30;;;3.80;99.90;;;;;;5044998;28;20759;-90
2020/12/31 01:40:50;;;;;;;10.27;7.97;;;3.80;99.90;;;;;;5038997;28;20548;-92
2020/12/31 01:43:16;;;;;;;7.47;5.50;;;3.90;99.90;;;;;;5038525;28;20552;-92
2020/12/31 01:45:46;;;;;;;10.97;7.27;;;3.90;99.90;;;;;;5021569;28;20459;-94
2020/12/31 01:48:13;;;;;;;9.87;7.10;;;3.80;99.90;;;;;;5024943;28;20489;-93
2020/12/31 01:50:39;;;;;;;11.67;7.17;;;3.70;99.90;;;;;;5029824;28;20453;-92
2020/12/31 01:53:06;;;;;;;10.43;6.60;;;3.70;99.90;;;;;;5034643;28;20536;-92
2020/12/31 01:55:33;;;;;;;9.47;7.47;;;3.70;99.90;;;;;;5028706;28;20500;-91
2020/12/31 01:58:03;;;;;;;9.80;7.20;;;3.70;99.90;;;;;;5035715;28;20957;-91
2020/12/31 02:00:32;;;;;;;10.00;7.70;;;3.80;99.90;;;;;;5037640;28;20603;-93
2020/12/31 02:03:00;;;;;;;8.93;6.57;;;3.70;99.90;;;;;;5026292;28;20460;-90
2020/12/31 02:05:26;;;;;;;9.03;6.70;;;3.70;99.90;;;;;;5041450;28;20540;-91
2020/12/31 02:07:53;;;;;;;11.13;8.00;;;3.80;99.90;;;;;;5037486;28;20552;-91
2020/12/31 02:10:21;;;;;;;13.20;8.27;;;3.70;99.90;;;;;;5040267;28;20555;-91
2020/12/31 02:12:47;;;;;;;9.40;8.00;;;3.70;99.90;;;;;;5042148;22;20489;-91
2020/12/31 02:15:15;;;;;;;11.17;7.40;;;3.70;99.90;;;;;;5007119;28;20973;-92
2020/12/31 02:17:43;;;;;;;10.20;7.20;;;3.70;99.90;;;;;;5011375;28;20492;-91
2020/12/31 02:20:10;;;;;;;12.47;8.17;;;3.70;99.90;;;;;;4996456;28;20498;-91
2020/12/31 02:22:38;;;;;;;8.67;7.20;;;3.70;99.90;;;;;;5011948;28;20464;-91
2020/12/31 02:25:04;;;;;;;11.33;7.83;;;3.60;99.90;;;;;;5018417;28;20457;-91
2020/12/31 02:27:31;;;;;;;10.93;7.97;;;3.70;99.90;;;;;;5000241;28;20486;-92
2020/12/31 02:29:58;;;;;;;14.73;8.40;;;3.70;99.90;;;;;;5007604;28;20462;-90
2020/12/31 02:32:25;;;;;;;10.60;7.87;;;3.60;99.90;;;;;;5015932;28;20537;-89
2020/12/31 02:34:51;;;;;;;12.57;7.70;;;3.60;99.90;;;;;;5017218;28;20878;-90
2020/12/31 02:37:20;;;;;;;10.23;7.90;;;3.60;99.90;;;;;;5017576;28;20479;-91
2020/12/31 02:39:48;;;;;;;9.50;7.40;;;3.60;99.90;;;;;;5015679;28;20218;-90
2020/12/31 02:42:19;;;;;;;8.90;6.60;;;3.60;99.90;;;;;;5017439;28;20502;-91
2020/12/31 02:44:46;;;;;;;8.23;6.63;;;3.70;99.90;;;;;;5018121;28;20902;-90
2020/12/31 02:47:12;;;;;;;10.10;7.60;;;3.70;99.90;;;;;;5009980;28;20468;-91
2020/12/31 02:49:39;;;;;;;10.80;7.33;;;3.70;99.90;;;;;;5004911;28;20990;-91
2020/12/31 02:52:05;;;;;;;10.97;7.60;;;3.70;99.90;;;;;;5007517;28;20463;-90
2020/12/31 02:54:32;;;;;;;12.07;8.67;;;3.60;99.90;;;;;;5007515;28;20963;-92
2020/12/31 02:57:00;;;;;;;14.20;6.83;;;3.70;99.90;;;;;;5009756;28;20546;-91
2020/12/31 02:59:27;;;;;;;9.33;6.10;;;3.70;99.90;;;;;;5019475;28;20466;-92
2020/12/31 03:01:53;;;;;;;8.60;7.07;;;3.80;99.90;;;;;;5007784;28;20949;-91
2020/12/31 03:04:20;;;;;;;8.80;6.20;;;3.90;99.90;;;;;;5013433;28;20211;-92
2020/12/31 03:06:49;;;;;;;10.57;7.37;;;3.90;99.90;;;;;;5002702;28;20490;-91
2020/12/31 03:09:17;;;;;;;11.10;6.60;;;4.50;99.90;;;;;;5014830;28;20458;-91
2020/12/31 03:11:43;;;;;;;9.27;7.00;;;3.80;99.90;;;;;;5016491;28;20519;-91
2020/12/31 03:14:11;;;;;;;7.70;6.27;;;3.90;99.90;;;;;;5016150;28;20890;-91
2020/12/31 03:16:37;;;;;;;7.80;6.83;;;3.90;99.90;;;;;;5006930;28;20444;-90
2020/12/31 03:19:04;;;;;;;7.53;6.33;;;3.90;99.90;;;;;;4996913;28;20463;-91
2020/12/31 03:21:30;;;;;;;9.43;6.80;;;3.90;99.90;;;;;;4996903;28;20548;-91
2020/12/31 03:23:57;;;;;;;11.88;7.82;;;3.90;99.90;;;;;;5008311;28;20487;-90
2020/12/31 03:26:23;;;;;;;13.80;7.47;;;3.90;99.90;;;;;;5016215;28;20211;-91
2020/12/31 03:28:50;;;;;;;11.53;7.87;;;3.90;99.90;;;;;;5015634;28;20521;-91
2020/12/31 03:31:17;;;;;;;12.40;7.73;;;3.90;99.90;;;;;;5016174;28;20480;-90
2020/12/31 03:33:43;;;;;;;10.07;7.27;;;3.80;99.90;;;;;;5018871;28;20554;-90
2020/12/31 03:36:10;;;;;;;9.93;6.60;;;3.80;99.90;;;;;;5014602;28;20551;-90
2020/12/31 03:38:36;;;;;;;11.83;7.57;;;3.80;99.90;;;;;;4997063;28;20458;-89
2020/12/31 03:41:03;;;;;;;10.30;7.40;;;3.80;99.90;;;;;;4997176;28;20494;-89
2020/12/31 03:43:29;;;;;;;15.33;7.93;;;3.80;99.90;;;;;;4997422;28;20586;-89
2020/12/31 03:45:56;;;;;;;10.80;7.13;;;3.80;99.90;;;;;;4998529;28;20459;-92
2020/12/31 03:48:26;;;;;;;9.80;7.10;;;3.80;99.90;;;;;;5013852;28;20865;-91
2020/12/31 03:50:55;;;;;;;13.47;7.83;;;4.30;99.90;;;;;;5005906;28;20441;-92
2020/12/31 03:53:22;;;;;;;7.70;6.10;;;3.80;99.90;;;;;;5018782;28;20457;-93
2020/12/31 03:55:48;;;;;;;41.00;8.13;;;3.70;99.90;;;;;;5010197;28;20474;-93
2020/12/31 03:58:15;;;;;;;9.60;5.00;;;3.70;99.90;;;;;;4997269;28;20494;-93
2020/12/31 04:00:41;;;;;;;11.03;6.97;;;3.70;99.90;;;;;;5001216;28;20465;-93
2020/12/31 04:03:08;;;;;;;9.93;6.50;;;3.50;99.90;;;;;;5018607;28;20489;-91
2020/12/31 04:05:37;;;;;;;10.20;6.73;;;3.40;99.90;;;;;;5004789;28;20566;-89
2020/12/31 04:08:04;;;;;;;85.23;49.23;;;3.50;99.90;;;;;;5001703;28;20552;-92
2020/12/31 04:10:30;;;;;;;12.73;7.47;;;3.60;99.90;;;;;;4995381;28;20455;-93
2020/12/31 04:12:57;;;;;;;10.87;7.50;;;3.80;99.90;;;;;;5012875;28;20488;-94
2020/12/31 04:15:23;;;;;;;10.17;6.50;;;3.50;99.90;;;;;;5016643;28;20486;-92
2020/12/31 04:17:50;;;;;;;10.30;6.90;;;3.70;99.90;;;;;;5019067;28;20545;-93
2020/12/31 04:20:16;;;;;;;8.93;7.43;;;3.70;99.90;;;;;;5019813;28;20459;-92
2020/12/31 04:22:44;;;;;;;7.23;6.33;;;3.40;99.90;;;;;;5018966;28;20464;-92
2020/12/31 04:25:10;;;;;;;9.37;6.63;;;3.70;99.90;;;;;;5018621;28;20539;-93
2020/12/31 04:27:36;;;;;;;9.00;6.47;;;3.90;99.90;;;;;;4999081;28;20815;-93
2020/12/31 04:30:03;;;;;;;9.40;7.23;;;3.30;99.90;;;;;;5012070;28;20561;-92
2020/12/31 04:32:30;;;;;;;8.70;6.33;;;3.60;99.90;;;;;;5000715;28;20539;-91
2020/12/31 04:34:56;;;;;;;9.20;7.40;;;3.40;99.90;;;;;;4999038;28;20485;-92
2020/12/31 04:37:23;;;;;;;9.60;6.50;;;3.90;99.90;;;;;;5016289;28;20512;-92
2020/12/31 04:39:50;;;;;;;9.23;7.20;;;3.40;99.90;;;;;;5020537;28;20465;-93
2020/12/31 04:42:17;;;;;;;9.37;7.10;;;3.40;99.90;;;;;;5008810;28;20467;-93
2020/12/31 04:44:45;;;;;;;7.67;6.73;;;3.80;99.90;;;;;;4999505;28;20547;-92
2020/12/31 04:47:20;;;;;;;8.20;5.70;;;3.40;99.90;;;;;;5016541;28;20454;-90
2020/12/31 04:49:51;;;;;;;8.13;7.23;;;3.40;99.90;;;;;;5020150;28;20469;-90
2020/12/31 04:52:18;;;;;;;8.23;6.03;;;3.80;99.90;;;;;;5026148;28;20465;-90
2020/12/31 04:54:44;;;;;;;8.40;6.60;;;3.40;99.90;;;;;;5017209;28;20502;-90
2020/12/31 04:57:12;;;;;;;9.90;6.83;;;3.40;99.90;;;;;;5004180;28;21010;-89
2020/12/31 04:59:39;;;;;;;8.80;6.77;;;3.80;99.90;;;;;;5005402;28;20458;-90
2020/12/31 05:02:07;;;;;;;7.83;6.20;;;3.50;99.90;;;;;;5017607;28;20861;-87
2020/12/31 05:04:33;;;;;;;9.43;6.27;;;3.60;99.90;;;;;;5010442;28;20481;-91
2020/12/31 05:07:00;;;;;;;9.00;6.17;;;3.60;99.90;;;;;;5007862;28;20465;-90
2020/12/31 05:09:26;;;;;;;9.80;6.00;;;3.50;99.90;;;;;;5018413;28;20741;-92
2020/12/31 05:11:54;;;;;;;9.50;6.80;;;3.60;99.90;;;;;;5017004;28;20589;-91
2020/12/31 05:14:29;;;;;;;7.33;5.73;;;3.60;99.90;;;;;;5009822;28;20481;-91
2020/12/31 05:16:56;;;;;;;12.63;6.20;;;4.00;99.90;;;;;;4997335;28;20478;-90
2020/12/31 05:19:25;;;;;;;63.07;11.03;;;3.60;99.90;;;;;;5015342;28;20500;-90
2020/12/31 05:22:16;;;;;;;174.60;68.40;;;3.60;99.90;;;;;;5014716;28;20489;-90
2020/12/31 05:24:44;;;;;;;9.57;6.90;;;3.60;99.90;;;;;;5012478;28;20465;-90
2020/12/31 05:27:25;;;;;;;9.00;6.53;;;3.60;99.90;;;;;;5015372;28;20560;-90
2020/12/31 05:30:00;;;;;;;8.03;7.03;;;3.60;99.90;;;;;;5009013;28;20879;-89
2020/12/31 05:32:28;;;;;;;9.10;6.57;;;3.50;99.90;;;;;;4996280;28;20783;-89
2020/12/31 05:34:56;;;;;;;9.00;6.07;;;3.50;99.90;;;;;;4995978;28;20573;-89
2020/12/31 05:37:23;;;;;;;7.20;5.70;;;4.00;99.90;;;;;;5008147;28;20549;-88
2020/12/31 05:40:03;;;;;;;8.87;5.53;;;3.60;99.90;;;;;;4998820;28;20453;-89
2020/12/31 05:42:33;;;;;;;6.90;5.50;;;3.70;99.90;;;;;;5002322;28;20557;-88
2020/12/31 05:45:12;;;;;;;6.03;5.07;;;3.70;99.90;;;;;;5003273;28;20790;-89
2020/12/31 05:47:48;;;;;;;6.40;4.70;;;3.70;99.90;;;;;;5000778;28;20474;-88
2020/12/31 05:50:21;;;;;;;8.07;6.13;;;3.70;99.90;;;;;;5003400;28;20462;-89
2020/12/31 05:52:48;;;;;;;6.37;5.23;;;3.70;99.90;;;;;;5016022;28;20450;-90
2020/12/31 05:55:17;;;;;;;8.63;5.50;;;3.70;99.90;;;;;;5005820;28;20577;-89
2020/12/31 05:57:45;;;;;;;6.43;4.33;;;3.70;99.90;;;;;;5014671;28;20548;-91
2020/12/31 06:00:16;;;;;;;6.10;5.03;;;3.80;99.90;;;;;;5014630;28;20541;-90
2020/12/31 06:02:45;;;;;;;6.30;5.20;;;3.70;99.90;;;;;;5016030;28;20468;-90
2020/12/31 06:05:15;;;;;;;5.70;4.50;;;3.60;99.90;;;;;;5003713;28;20447;-90
2020/12/31 06:07:49;;;;;;;7.07;5.40;;;3.70;99.90;;;;;;4997321;28;20483;-91
2020/12/31 06:10:22;;;;;;;7.30;5.30;;;3.70;99.90;;;;;;5014371;28;20501;-91
2020/12/31 06:12:54;;;;;;;5.73;4.77;;;3.50;99.90;;;;;;5022450;28;20486;-92
2020/12/31 06:15:27;;;;;;;6.10;5.17;;;3.50;99.90;;;;;;5019000;28;20471;-91
2020/12/31 06:17:54;;;;;;;6.50;4.67;;;3.60;99.90;;;;;;5013597;28;20417;-92
2020/12/31 06:20:22;;;;;;;7.10;5.67;;;3.80;99.90;;;;;;5024528;28;20481;-91
2020/12/31 06:23:11;;;;;;;6.90;4.67;;;3.60;99.90;;;;;;5005093;28;20474;-91
2020/12/31 06:25:41;;;;;;;7.40;4.90;;;3.60;99.90;;;;;;5004020;28;20490;-91
2020/12/31 06:28:15;;;;;;;6.63;5.17;;;3.70;99.90;;;;;;5001746;28;20497;-91
2020/12/31 06:30:45;;;;;;;6.40;5.03;;;3.70;99.90;;;;;;5002604;28;20552;-92
2020/12/31 06:33:15;;;;;;;5.60;4.50;;;3.70;99.90;;;;;;5010261;28;20450;-91
2020/12/31 06:35:49;;;;;;;5.77;4.90;;;3.70;99.90;;;;;;5020163;28;20469;-91
2020/12/31 06:38:16;;;;;;;5.80;4.90;;;3.70;99.90;;;;;;5018176;28;20464;-92
2020/12/31 06:40:43;;;;;;;6.00;4.93;;;3.80;99.90;;;;;;5011531;28;20450;-91
2020/12/31 06:43:11;;;;;;;6.43;4.80;;;3.80;99.90;;;;;;5010153;28;20448;-91
2020/12/31 06:45:40;;;;;;;5.70;4.60;;;3.80;99.90;;;;;;5020976;28;20459;-92
2020/12/31 06:48:39;;;;;;;5.90;4.50;;;3.80;99.90;;;;;;5008547;28;20445;-92
2020/12/31 06:51:07;;;;;;;6.10;4.27;;;3.80;99.90;;;;;;4991110;28;20461;-90
2020/12/31 06:53:35;;;;;;;5.80;4.17;;;3.70;99.90;;;;;;4997905;28;20454;-90
2020/12/31 06:56:03;;;;;;;6.83;5.67;;;3.60;99.90;;;;;;5014449;28;20991;-91
2020/12/31 06:58:31;;;;;;;6.47;4.63;;;3.70;99.90;;;;;;5018552;28;20895;-91
2020/12/31 07:00:58;;;;;;;6.37;4.77;;;3.80;99.90;;;;;;5002581;28;20459;-91
2020/12/31 07:03:47;;;;;;;5.73;4.30;;;3.80;99.90;;;;;;4999939;28;20482;-90
2020/12/31 07:06:32;;;;;;;5.57;4.17;;;3.80;99.90;;;;;;5018146;28;20457;-89
2020/12/31 07:09:04;;;;;;;7.30;4.33;;;3.80;99.90;;;;;;5017341;28;20454;-88
2020/12/31 07:11:32;;;;;;;4.70;3.90;;;3.70;99.90;;;;;;5001518;28;20467;-87
2020/12/31 07:13:59;;;;;;;5.30;3.93;;;3.70;99.90;;;;;;5003035;28;20535;-88
2020/12/31 07:16:45;;;;;;;4.90;3.57;;;3.70;99.90;;;;;;5029162;28;20466;-88
2020/12/31 07:19:13;;;;;;;5.03;3.30;;;3.70;99.90;;;;;;5017928;28;20501;-88
2020/12/31 07:21:39;;;;;;;4.50;3.63;;;3.70;99.90;;;;;;5021976;28;20446;-88
2020/12/31 07:24:27;;;;;;;5.77;3.90;;;3.70;99.90;;;;;;5004757;28;20541;-88
2020/12/31 07:26:58;;;;;;;5.27;4.17;;;3.70;99.90;;;;;;5017924;28;20565;-88
2020/12/31 07:29:25;;;;;;;5.73;3.60;;;3.70;99.90;;;;;;5022712;28;20461;-88
2020/12/31 07:31:52;;;;;;;5.37;4.10;;;3.60;99.90;;;;;;5008930;28;20457;-89
2020/12/31 07:34:23;;;;;;;4.87;3.87;;;3.60;99.90;;;;;;5020504;28;20505;-88
2020/12/31 07:36:57;;;;;;;4.63;2.93;;;3.70;99.90;;;;;;5020378;28;20454;-88
2020/12/31 07:39:24;;;;;;;3.77;3.20;;;3.70;99.90;;;;;;5022016;28;20469;-88
2020/12/31 07:42:24;;;;;;;3.90;2.93;;;3.80;99.90;;;;;;5011331;28;20493;-89
2020/12/31 07:45:03;;;;;;;4.40;2.47;;;3.80;99.90;;;;;;5014636;28;20489;-89
2020/12/31 07:47:50;;;;;;;4.20;3.03;;;3.80;99.90;;;;;;5019098;28;20450;-89
2020/12/31 07:50:18;;;;;;;4.40;3.27;;;3.70;99.90;;;;;;5020061;28;20447;-89
2020/12/31 07:53:02;;;;;;;5.07;4.20;;;3.80;99.90;;;;;;5023266;28;20461;-90
2020/12/31 07:55:35;;;;;;;3.93;2.70;;;3.80;99.90;;;;;;5020987;28;20850;-89
2020/12/31 07:58:36;;;;;;;3.97;3.33;;;3.60;99.90;;;;;;5018680;28;20435;-88
2020/12/31 08:01:05;;;;;;;3.83;2.73;;;3.70;99.90;;;;;;5019840;28;20533;-88
2020/12/31 08:03:47;;;;;;;3.47;2.80;;;3.70;99.90;;;;;;5022058;28;20450;-88
2020/12/31 08:06:32;;;;;;;4.67;3.57;;;3.80;99.90;;;;;;5006741;28;20428;-90
2020/12/31 08:09:09;;;;;;;3.80;2.73;;;3.80;99.90;;;;;;5000683;28;20486;-89
2020/12/31 08:11:36;;;;;;;4.30;3.00;;;3.80;99.90;;;;;;5002022;28;20492;-89
2020/12/31 08:14:29;;;;;;;4.33;3.30;;;3.80;99.90;;;;;;5001561;28;20931;-89
2020/12/31 08:17:07;;;;;;;7.87;4.33;;;3.70;99.90;;;;;;4963803;28;20897;-88
2020/12/31 08:19:33;;;;;;;4.50;3.27;;;3.70;99.90;;;;;;5018995;28;20450;-89
2020/12/31 08:22:12;;;;;;;3.33;2.70;;;3.80;99.90;;;;;;5020401;28;20440;-88
2020/12/31 08:25:00;;;;;;;4.57;2.30;;;3.80;99.90;;;;;;5007308;28;20446;-88
2020/12/31 08:28:07;;;;;;;;;;;;;;;;;;;;;
2020/12/31 08:30:51;;;;;;;3.40;2.43;;;3.80;99.90;;;;;;5002399;28;20431;-89
2020/12/31 08:33:26;;;;;;;3.73;2.67;;;3.90;99.90;;;;;;5001461;28;20507;-88
2020/12/31 08:35:53;;;;;;;3.43;2.43;;;3.90;99.90;;;;;;5000178;28;20903;-89
2020/12/31 08:38:21;;;;;;;3.90;2.50;;;3.90;99.90;;;;;;4999617;28;20991;-89
2020/12/31 08:40:52;;;;;;;4.63;3.53;;;3.80;99.90;;;;;;4999141;28;20476;-90
2020/12/31 08:43:20;;;;;;;6.37;3.10;;;3.90;99.90;;;;;;5017260;28;20473;-88
2020/12/31 08:45:51;;;;;;;4.93;3.50;;;3.90;99.90;;;;;;5018799;28;20452;-88
2020/12/31 08:48:22;;;;;;;3.90;2.87;;;3.90;99.90;;;;;;5019190;28;20438;-90
2020/12/31 08:51:06;;;;;;;3.40;2.30;;;3.90;99.90;;;;;;5014918;28;20455;-89
2020/12/31 08:53:46;;;;;;;3.03;2.03;;;3.90;99.90;;;;;;5005791;28;20521;-88
2020/12/31 08:56:13;;;;;;;4.90;3.63;;;4.00;99.90;;;;;;5015501;28;20964;-89
2020/12/31 08:58:40;;;;;;;5.43;3.20;;;4.10;99.90;;;;;;5019421;28;20906;-88
2020/12/31 09:01:06;;;;;;;5.20;3.50;;;4.10;99.90;;;;;;5020912;28;20486;-88
2020/12/31 09:03:48;;;;;;;3.37;3.00;;;4.10;99.90;;;;;;5022207;28;20442;-89
2020/12/31 09:06:32;;;;;;;4.03;3.13;;;4.10;99.90;;;;;;5021516;28;20448;-89
2020/12/31 09:09:00;;;;;;;4.80;3.00;;;4.10;99.90;;;;;;5021179;28;20445;-89
2020/12/31 09:11:33;;;;;;;3.90;3.40;;;4.30;99.90;;;;;;5020306;28;20486;-89
2020/12/31 09:17:50;;;;;;;5.10;3.50;;;4.40;99.90;;;;;;5005149;28;20520;-89
2020/12/31 09:23:21;;;;;;;4.70;4.13;;;4.50;99.90;;;;;;5011288;28;20474;-88
2020/12/31 09:25:49;;;;;;;4.77;3.50;;;4.60;99.90;;;;;;5021810;28;20445;-84
2020/12/31 09:28:17;;;;;;;4.93;3.73;;;4.70;99.90;;;;;;5012262;28;20530;-88
2020/12/31 09:30:46;;;;;;;5.37;3.70;;;4.70;99.90;;;;;;5020742;28;20469;-85
2020/12/31 09:33:17;;;;;;;4.90;3.97;;;4.90;99.90;;;;;;5016400;28;20482;-86
2020/12/31 09:35:47;;;;;;;5.30;3.40;;;4.90;99.90;;;;;;5022256;28;20978;-87
2020/12/31 09:38:15;;;;;;;4.63;3.37;;;5.00;99.90;;;;;;5024903;28;20483;-88
2020/12/31 09:40:41;;;;;;;3.80;3.40;;;4.90;99.90;;;;;;5021909;28;20499;-89
2020/12/31 09:43:09;;;;;;;5.27;3.43;;;5.10;99.90;;;;;;5020205;28;20465;-87
2020/12/31 09:45:38;;;;;;;3.27;2.97;;;5.30;99.90;;;;;;5019831;28;20531;-92
2020/12/31 09:48:05;;;;;;;3.97;2.90;;;5.50;99.90;;;;;;5019681;28;20544;-88
2020/12/31 09:50:32;;;;;;;4.50;3.30;;;5.50;99.90;;;;;;5012602;28;20778;-84
2020/12/31 09:52:59;;;;;;;4.83;3.57;;;5.60;99.90;;;;;;5001115;28;20536;-89
2020/12/31 09:55:27;;;;;;;3.60;2.87;;;5.70;99.90;;;;;;5003789;28;20492;-91
2020/12/31 09:57:54;;;;;;;5.27;3.93;;;5.70;99.90;;;;;;5003817;28;20474;-88
2020/12/31 10:00:21;;;;;;;5.30;4.23;;;5.70;99.90;;;;;;5020732;28;20491;-92
2020/12/31 10:02:48;;;;;;;4.30;3.20;;;5.70;99.90;;;;;;5022537;28;20438;-90
2020/12/31 10:05:15;;;;;;;3.50;2.90;;;5.60;99.90;;;;;;5006805;28;20950;-93
2020/12/31 10:07:42;;;;;;;4.00;3.10;;;5.50;99.90;;;;;;5021165;28;20460;-84
2020/12/31 10:10:08;;;;;;;4.50;3.80;;;5.40;99.90;;;;;;5012024;28;20445;-88
2020/12/31 10:12:35;;;;;;;4.97;3.67;;;5.30;99.90;;;;;;5011731;28;20491;-87
2020/12/31 10:15:01;;;;;;;5.73;3.77;;;5.20;99.90;;;;;;5014031;28;20495;-87
2020/12/31 10:17:28;;;;;;;5.23;3.90;;;5.30;99.90;;;;;;5025532;28;20462;-88
2020/12/31 10:19:56;;;;;;;5.27;4.07;;;5.40;99.90;;;;;;5026728;28;20500;-88
2020/12/31 10:22:23;;;;;;;6.40;3.50;;;5.50;99.90;;;;;;5016222;28;20456;-88
2020/12/31 10:24:50;;;;;;;3.90;3.40;;;5.30;99.90;;;;;;5027087;28;20457;-87
2020/12/31 10:27:16;;;;;;;4.37;3.73;;;5.50;99.90;;;;;;5011330;28;20464;-87
2020/12/31 10:29:42;;;;;;;4.27;3.60;;;5.50;99.90;;;;;;5023730;28;20446;-87
2020/12/31 10:32:09;;;;;;;4.17;3.50;;;5.60;99.90;;;;;;5011206;28;20487;-85
2020/12/31 10:34:44;;;;;;;5.23;3.47;;;5.60;99.90;;;;;;5016767;28;20527;-87
2020/12/31 10:37:21;;;;;;;4.80;4.20;;;5.70;99.90;;;;;;5023291;28;20453;-88
2020/12/31 10:39:51;;;;;;;4.83;3.40;;;5.60;99.90;;;;;;5023410;28;20459;-87
2020/12/31 10:42:21;;;;;;;4.80;2.93;;;5.50;99.90;;;;;;5009090;28;20508;-88
2020/12/31 10:44:53;;;;;;;4.80;2.87;;;5.50;99.90;;;;;;5011349;28;20459;-87
2020/12/31 10:47:20;;;;;;;5.57;4.57;;;5.60;99.90;;;;;;5015114;28;20465;-87
2020/12/31 10:49:56;;;;;;;4.40;3.10;;;5.60;99.90;;;;;;5009937;28;20439;-85
2020/12/31 10:52:22;;;;;;;5.00;3.60;;;5.80;99.90;;;;;;5033908;28;20451;-87
2020/12/31 10:54:55;;;;;;;4.23;3.30;;;5.70;99.90;;;;;;5030446;28;20520;-90
2020/12/31 10:57:22;;;;;;;5.23;4.00;;;5.80;99.90;;;;;;5022870;28;20460;-86
2020/12/31 10:59:48;;;;;;;3.33;2.87;;;5.70;99.90;;;;;;5011023;28;20469;-83
2020/12/31 11:02:15;;;;;;;4.80;3.40;;;5.70;99.90;;;;;;5013459;28;20472;-89
2020/12/31 11:04:45;;;;;;;4.77;3.70;;;5.50;99.90;;;;;;5008954;28;20484;-88
2020/12/31 11:07:14;;;;;;;4.70;3.80;;;5.60;99.90;;;;;;5015263;28;20517;-89
2020/12/31 11:09:42;;;;;;;4.33;3.27;;;5.60;99.90;;;;;;5030584;28;20452;-90
2020/12/31 11:12:13;;;;;;;4.50;3.83;;;5.50;99.90;;;;;;5029606;28;20489;-88
2020/12/31 11:14:40;;;;;;;4.63;3.37;;;5.50;99.90;;;;;;5028638;28;20492;-90
2020/12/31 11:17:10;;;;;;;4.20;3.30;;;5.60;99.90;;;;;;5029296;28;20488;-90
2020/12/31 11:19:39;;;;;;;3.50;2.60;;;5.80;99.90;;;;;;5020648;28;20456;-88
2020/12/31 11:22:08;;;;;;;3.70;2.97;;;5.80;99.90;;;;;;5035027;28;20463;-88
2020/12/31 11:24:39;;;;;;;3.83;2.50;;;5.70;99.90;;;;;;5039628;28;20443;-87
2020/12/31 11:27:07;;;;;;;2.67;2.27;;;5.60;99.90;;;;;;5018668;28;20427;-88
2020/12/31 11:29:39;;;;;;;3.10;2.43;;;5.60;99.90;;;;;;5018915;28;20457;-87
2020/12/31 11:32:06;;;;;;;4.30;3.00;;;5.50;99.90;;;;;;5006459;28;20440;-87
2020/12/31 11:34:32;;;;;;;3.63;2.53;;;5.50;99.90;;;;;;5021814;28;20552;-88
2020/12/31 11:39:58;;;;;;;3.40;2.20;;;5.60;99.90;;;;;;5039495;28;20533;-86
2020/12/31 11:42:26;;;;;;;5.73;2.43;;;5.50;99.90;;;;;;5044169;28;20458;-86
2020/12/31 11:44:59;;;;;;;3.87;2.60;;;5.40;99.90;;;;;;5047730;28;20441;-87
2020/12/31 11:47:25;;;;;;;3.03;2.00;;;5.40;99.90;;;;;;5023675;28;20788;-87
2020/12/31 11:49:52;;;;;;;3.60;2.20;;;5.50;99.90;;;;;;5022528;28;20478;-86
2020/12/31 11:52:18;;;;;;;2.83;1.80;;;5.40;99.90;;;;;;5022514;28;21006;-88
2020/12/31 11:54:45;;;;;;;3.03;1.93;;;5.40;99.90;;;;;;5019163;28;20487;-87
2020/12/31 11:57:13;;;;;;;3.60;2.17;;;5.40;99.90;;;;;;5019823;28;20534;-88
2020/12/31 11:59:41;;;;;;;3.10;2.03;;;5.40;99.90;;;;;;5012565;28;20462;-88
2020/12/31 12:02:08;;;;;;;3.83;2.37;;;5.30;99.90;;;;;;5017324;28;20461;-90
2020/12/31 12:04:34;;;;;;;3.10;2.00;;;5.30;99.90;;;;;;5017842;28;20469;-87
2020/12/31 12:07:01;;;;;;;3.70;1.93;;;5.20;99.90;;;;;;5018658;28;20486;-88
2020/12/31 12:09:28;;;;;;;2.53;1.80;;;5.00;99.90;;;;;;4998378;28;20509;-88
2020/12/31 12:11:54;;;;;;;2.80;2.00;;;5.00;99.90;;;;;;5012995;28;20514;-88
2020/12/31 12:14:21;;;;;;;4.00;2.30;;;4.90;99.90;;;;;;5017631;28;20657;-87
2020/12/31 12:16:49;;;;;;;3.13;1.80;;;4.80;99.90;;;;;;5015119;28;20452;-88
2020/12/31 12:19:16;;;;;;;3.00;2.20;;;4.90;99.90;;;;;;5018342;28;20555;-86
2020/12/31 12:21:42;;;;;;;3.47;1.97;;;4.90;99.90;;;;;;5028319;28;20487;-88
2020/12/31 12:24:09;;;;;;;3.80;2.43;;;4.80;99.90;;;;;;5024242;28;20539;-88
2020/12/31 12:26:37;;;;;;;3.00;2.37;;;4.60;99.90;;;;;;5016995;28;20461;-87
2020/12/31 12:29:04;;;;;;;3.47;2.30;;;4.70;99.90;;;;;;5017694;28;20513;-88
2020/12/31 12:31:32;;;;;;;4.27;2.20;;;4.90;99.90;;;;;;5017869;28;20484;-88
2020/12/31 12:33:59;;;;;;;3.93;2.27;;;4.90;99.90;;;;;;5017170;28;20868;-88
2020/12/31 12:36:25;;;;;;;3.73;2.17;;;4.90;99.90;;;;;;5015977;28;20969;-87
2020/12/31 12:38:52;;;;;;;3.33;1.70;;;4.90;99.90;;;;;;5017039;28;20551;-89
2020/12/31 12:41:19;;;;;;;2.50;1.67;;;5.00;99.90;;;;;;5015832;28;20487;-87
2020/12/31 12:43:45;;;;;;;2.13;1.60;;;4.90;99.90;;;;;;5016239;28;20547;-88
2020/12/31 12:46:14;;;;;;;6.03;2.37;;;5.00;99.90;;;;;;5012046;28;20464;-88
2020/12/31 12:48:42;;;;;;;2.57;1.87;;;4.80;99.90;;;;;;5012090;28;20455;-87
2020/12/31 12:51:08;;;;;;;4.00;1.90;;;4.80;99.90;;;;;;5016243;28;20549;-88
2020/12/31 12:53:35;;;;;;;3.23;2.20;;;4.80;99.90;;;;;;5024668;28;20834;-87
2020/12/31 12:56:02;;;;;;;2.90;1.60;;;4.90;99.90;;;;;;5017710;28;20483;-91
2020/12/31 12:58:29;;;;;;;2.43;1.70;;;4.90;99.90;;;;;;5007409;28;20454;-88
2020/12/31 13:00:55;;;;;;;3.17;1.87;;;4.90;99.90;;;;;;5022338;28;20545;-88
2020/12/31 13:03:22;;;;;;;3.20;2.20;;;4.90;99.90;;;;;;5001909;28;20545;-88
2020/12/31 13:05:50;;;;;;;2.63;1.43;;;4.90;99.90;;;;;;5003662;28;20466;-88
2020/12/31 13:08:17;;;;;;;2.43;1.37;;;5.00;99.90;;;;;;5014799;28;20455;-90
2020/12/31 13:10:44;;;;;;;3.77;2.13;;;5.10;99.90;;;;;;5015506;28;20452;-87
2020/12/31 13:13:11;;;;;;;3.00;1.90;;;5.00;99.90;;;;;;5014520;28;20508;-87
2020/12/31 13:15:39;;;;;;;2.97;1.87;;;4.80;99.90;;;;;;5011310;28;20579;-90